createdAt,value
2023-03-29T00:00:09.235Z,81.70
2023-03-29T00:02:39.987Z,81.20
2023-03-29T00:05:08.778Z,81.40
2023-03-29T00:07:36.530Z,81.50
2023-03-29T00:10:06.494Z,81.50
2023-03-29T00:12:34.198Z,80.80
2023-03-29T00:15:02.019Z,80.50
2023-03-29T00:17:29.773Z,80.00
2023-03-29T00:19:57.362Z,80.20
2023-03-29T00:22:25.463Z,80.00
2023-03-29T00:24:54.196Z,79.90
2023-03-29T00:27:22.302Z,79.50
2023-03-29T00:29:49.764Z,79.60
2023-03-29T00:32:17.189Z,79.50
2023-03-29T00:34:45.922Z,79.50
2023-03-29T00:37:14.902Z,79.70
2023-03-29T00:39:42.520Z,80.20
2023-03-29T00:42:14.911Z,80.40
2023-03-29T00:44:59.560Z,80.70
2023-03-29T00:47:43.780Z,80.70
2023-03-29T00:50:29.625Z,80.20
2023-03-29T00:53:12.501Z,79.80
2023-03-29T00:56:10.077Z,80.40
2023-03-29T00:58:55.364Z,81.10
2023-03-29T01:01:34.152Z,82.90
2023-03-29T01:04:18.681Z,83.90
2023-03-29T01:07:17.943Z,85.80
2023-03-29T01:09:50.773Z,87.70
2023-03-29T01:12:24.227Z,89.50
2023-03-29T01:15:04.240Z,90.70
2023-03-29T01:17:33.211Z,91.00
2023-03-29T01:20:19.204Z,92.30
2023-03-29T01:23:21.341Z,93.10
2023-03-29T01:26:14.267Z,94.30
2023-03-29T01:29:04.759Z,95.50
2023-03-29T01:31:38.380Z,96.20
2023-03-29T01:34:18.654Z,96.00
2023-03-29T01:36:58.852Z,95.60
2023-03-29T01:39:27.001Z,95.20
2023-03-29T01:42:21.047Z,94.60
2023-03-29T01:45:14.793Z,94.30
2023-03-29T01:48:04.226Z,93.90
2023-03-29T01:50:43.580Z,93.40
2023-03-29T01:53:19.034Z,93.30
2023-03-29T01:55:54.548Z,93.50
2023-03-29T01:58:33.700Z,93.20
2023-03-29T02:01:05.829Z,92.70
2023-03-29T02:03:34.233Z,92.30
2023-03-29T02:06:06.972Z,92.10
2023-03-29T02:08:34.558Z,91.90
2023-03-29T02:11:02.233Z,91.80
2023-03-29T02:13:29.925Z,92.50
2023-03-29T02:16:00.019Z,93.30
2023-03-29T02:18:27.606Z,93.90
2023-03-29T02:20:57.372Z,94.10
2023-03-29T02:23:36.305Z,94.40
2023-03-29T02:26:06.727Z,94.90
2023-03-29T02:28:35.516Z,95.00
2023-03-29T02:31:09.617Z,95.10
2023-03-29T02:33:59.760Z,95.70
2023-03-29T02:36:38.269Z,96.10
2023-03-29T02:39:08.129Z,96.80
2023-03-29T02:41:38.103Z,97.30
2023-03-29T02:44:08.201Z,97.40
2023-03-29T02:46:37.930Z,98.20
2023-03-29T02:49:05.819Z,98.40
2023-03-29T02:51:35.422Z,98.60
2023-03-29T02:54:25.855Z,99.00
2023-03-29T02:57:00.000Z,98.90
2023-03-29T02:59:29.873Z,99.20
2023-03-29T03:01:58.330Z,99.10
2023-03-29T03:04:28.040Z,98.80
2023-03-29T03:06:56.215Z,98.80
2023-03-29T03:09:24.211Z,98.40
2023-03-29T03:11:53.400Z,98.40
2023-03-29T03:14:22.949Z,98.60
2023-03-29T03:16:52.853Z,98.80
2023-03-29T03:19:20.451Z,98.70
2023-03-29T03:21:47.842Z,98.90
2023-03-29T03:24:15.635Z,98.90
2023-03-29T03:26:46.316Z,99.10
2023-03-29T03:29:15.793Z,99.60
2023-03-29T03:32:04.247Z,99.90
2023-03-29T03:34:52.242Z,99.90
2023-03-29T03:37:23.594Z,99.90
2023-03-29T03:39:51.903Z,99.90
2023-03-29T03:42:19.928Z,99.90
2023-03-29T03:44:47.759Z,99.90
2023-03-29T03:47:37.576Z,99.90
2023-03-29T03:50:19.283Z,99.90
2023-03-29T03:52:47.147Z,99.90
2023-03-29T03:55:15.010Z,99.90
2023-03-29T03:58:01.057Z,99.90
2023-03-29T04:00:29.686Z,99.90
2023-03-29T04:03:24.140Z,99.90
2023-03-29T04:05:51.775Z,99.90
2023-03-29T04:08:22.631Z,99.90
2023-03-29T04:11:12.980Z,99.90
2023-03-29T04:13:42.377Z,99.90
2023-03-29T04:16:25.543Z,99.90
2023-03-29T04:18:54.206Z,99.90
2023-03-29T04:21:23.347Z,99.90
2023-03-29T04:23:50.895Z,99.90
2023-03-29T04:26:18.387Z,99.90
2023-03-29T04:28:52.169Z,99.90
2023-03-29T04:31:24.321Z,99.90
2023-03-29T04:34:14.606Z,99.90
2023-03-29T04:36:43.588Z,99.90
2023-03-29T04:39:20.602Z,99.90
2023-03-29T04:41:53.459Z,99.90
2023-03-29T04:44:24.538Z,99.90
2023-03-29T04:46:52.277Z,99.90
2023-03-29T04:49:49.312Z,99.90
2023-03-29T04:52:33.305Z,99.90
2023-03-29T04:55:02.704Z,99.90
2023-03-29T04:57:48.844Z,99.90
2023-03-29T05:00:27.025Z,99.90
2023-03-29T05:03:11.484Z,99.90
2023-03-29T05:05:42.983Z,99.90
2023-03-29T05:08:12.278Z,99.90
2023-03-29T05:11:00.158Z,99.90
2023-03-29T05:13:28.908Z,99.90
2023-03-29T05:15:57.233Z,99.90
2023-03-29T05:18:25.327Z,99.90
2023-03-29T05:20:54.024Z,99.90
2023-03-29T05:23:23.758Z,99.90
2023-03-29T05:26:09.982Z,99.30
2023-03-29T05:28:39.510Z,99.00
2023-03-29T05:31:08.409Z,98.80
2023-03-29T05:33:37.955Z,98.50
2023-03-29T05:36:13.552Z,98.30
2023-03-29T05:38:46.828Z,98.50
2023-03-29T05:41:15.964Z,98.50
2023-03-29T05:43:46.457Z,99.90
2023-03-29T05:46:13.993Z,99.90
2023-03-29T05:48:48.431Z,99.90
2023-03-29T05:51:18.988Z,99.90
2023-03-29T05:53:46.597Z,99.90
2023-03-29T05:56:16.105Z,99.90
2023-03-29T05:58:43.897Z,99.90
2023-03-29T06:01:13.511Z,99.90
2023-03-29T06:03:54.784Z,99.90
2023-03-29T06:06:26.758Z,99.90
2023-03-29T06:08:54.165Z,99.90
2023-03-29T06:11:26.409Z,99.90
2023-03-29T06:14:16.713Z,99.90
2023-03-29T06:16:51.423Z,99.90
2023-03-29T06:19:19.283Z,99.40
2023-03-29T06:21:47.389Z,99.40
2023-03-29T06:24:19.448Z,99.30
2023-03-29T06:26:53.360Z,99.70
2023-03-29T06:29:20.862Z,99.00
2023-03-29T06:31:49.286Z,96.70
2023-03-29T06:34:38.436Z,94.50
2023-03-29T06:37:23.728Z,92.90
2023-03-29T06:39:59.863Z,91.00
2023-03-29T06:42:45.962Z,90.10
2023-03-29T06:45:38.709Z,88.10
2023-03-29T06:48:12.611Z,86.90
2023-03-29T06:50:41.467Z,85.90
2023-03-29T06:53:11.588Z,85.70
2023-03-29T06:55:41.360Z,82.70
2023-03-29T06:58:38.149Z,80.20
2023-03-29T07:01:17.723Z,78.00
2023-03-29T07:04:04.563Z,77.90
2023-03-29T07:06:40.446Z,77.90
2023-03-29T07:09:08.021Z,76.50
2023-03-29T07:11:54.459Z,74.80
2023-03-29T07:14:30.033Z,74.10
2023-03-29T07:17:01.182Z,72.00
2023-03-29T07:19:41.025Z,70.50
2023-03-29T07:22:51.068Z,67.90
2023-03-29T07:25:21.533Z,65.70
2023-03-29T07:27:49.239Z,64.00
2023-03-29T07:30:21.143Z,63.40
2023-03-29T07:32:51.098Z,62.30
2023-03-29T07:35:29.175Z,61.80
2023-03-29T07:37:57.323Z,63.20
2023-03-29T07:40:26.404Z,62.30
2023-03-29T07:42:57.530Z,60.50
2023-03-29T07:45:29.106Z,59.60
2023-03-29T07:48:10.326Z,59.70
2023-03-29T07:51:07.509Z,58.60
2023-03-29T07:53:45.145Z,58.30
2023-03-29T07:56:38.672Z,58.10
2023-03-29T07:59:28.549Z,56.70
2023-03-29T08:02:05.516Z,56.90
2023-03-29T08:04:38.020Z,56.20
2023-03-29T08:07:21.346Z,55.50
2023-03-29T08:10:09.760Z,55.10
2023-03-29T08:12:55.869Z,55.30
2023-03-29T08:15:39.547Z,55.20
2023-03-29T08:18:15.739Z,55.30
2023-03-29T08:20:43.327Z,55.70
2023-03-29T08:23:11.455Z,55.40
2023-03-29T08:25:57.120Z,54.80
2023-03-29T08:28:24.606Z,55.90
2023-03-29T08:30:52.852Z,56.70
2023-03-29T08:33:20.772Z,56.50
2023-03-29T08:35:56.196Z,56.50
2023-03-29T08:38:31.100Z,56.70
2023-03-29T08:40:58.875Z,56.30
2023-03-29T08:43:52.762Z,57.60
2023-03-29T08:47:10.711Z,57.90
2023-03-29T08:49:47.123Z,56.90
2023-03-29T08:52:26.462Z,57.00
2023-03-29T08:54:57.305Z,55.70
2023-03-29T08:58:09.335Z,55.70
2023-03-29T09:00:53.139Z,55.50
2023-03-29T09:03:25.328Z,55.00
2023-03-29T09:06:02.750Z,53.70
2023-03-29T09:08:31.460Z,54.20
2023-03-29T09:11:08.010Z,54.00
2023-03-29T09:13:49.024Z,53.50
2023-03-29T09:16:43.231Z,54.70
2023-03-29T09:19:22.459Z,53.80
2023-03-29T09:22:19.754Z,52.90
2023-03-29T09:24:54.112Z,52.20
2023-03-29T09:27:38.501Z,53.60
2023-03-29T09:30:31.485Z,52.50
2023-03-29T09:33:19.957Z,52.80
2023-03-29T09:36:25.371Z,52.30
2023-03-29T09:38:56.932Z,53.40
2023-03-29T09:41:35.996Z,52.70
2023-03-29T09:44:15.034Z,53.70
2023-03-29T09:46:58.429Z,54.00
2023-03-29T09:49:36.287Z,54.60
2023-03-29T09:52:11.495Z,54.60
2023-03-29T09:54:39.981Z,53.90
2023-03-29T09:57:27.053Z,53.60
2023-03-29T09:59:54.846Z,54.30
2023-03-29T10:02:22.407Z,55.00
2023-03-29T10:04:55.686Z,54.40
2023-03-29T10:07:23.515Z,55.00
2023-03-29T10:09:56.602Z,54.90
2023-03-29T10:12:25.027Z,54.40
2023-03-29T10:14:54.534Z,53.20
2023-03-29T10:17:24.580Z,53.40
2023-03-29T10:19:57.222Z,53.00
2023-03-29T10:22:27.811Z,53.00
2023-03-29T10:24:58.137Z,54.10
2023-03-29T10:27:28.338Z,53.30
2023-03-29T10:29:59.359Z,53.60
2023-03-29T10:32:37.664Z,53.40
2023-03-29T10:35:24.945Z,54.40
2023-03-29T10:37:55.829Z,54.00
2023-03-29T10:40:30.824Z,54.70
2023-03-29T10:43:00.835Z,54.10
2023-03-29T10:45:31.690Z,54.10
2023-03-29T10:47:59.443Z,53.50
2023-03-29T10:50:34.554Z,54.70
2023-03-29T10:53:04.100Z,55.90
2023-03-29T10:56:03.466Z,57.20
2023-03-29T10:58:42.408Z,57.30
2023-03-29T11:01:21.135Z,56.30
2023-03-29T11:04:08.443Z,56.50
2023-03-29T11:07:04.531Z,57.60
2023-03-29T11:09:43.763Z,59.10
2023-03-29T11:12:43.542Z,60.30
2023-03-29T11:15:45.414Z,61.90
2023-03-29T11:18:24.640Z,64.50
2023-03-29T11:21:11.689Z,66.50
2023-03-29T11:24:03.361Z,67.00
2023-03-29T11:26:51.959Z,68.90
2023-03-29T11:29:29.570Z,69.10
2023-03-29T11:32:19.194Z,69.10
2023-03-29T11:34:59.613Z,69.90
2023-03-29T11:37:50.342Z,69.40
2023-03-29T11:40:56.213Z,70.40
2023-03-29T11:43:34.957Z,71.00
2023-03-29T11:46:22.579Z,72.20
2023-03-29T11:48:56.143Z,71.80
2023-03-29T11:51:28.434Z,72.00
2023-03-29T11:54:00.254Z,71.90
2023-03-29T11:56:48.569Z,72.60
2023-03-29T11:59:34.659Z,72.60
2023-03-29T12:02:17.037Z,73.70
2023-03-29T12:04:52.412Z,73.40
2023-03-29T12:07:36.717Z,73.50
2023-03-29T12:10:19.421Z,73.40
2023-03-29T12:13:09.525Z,73.40
2023-03-29T12:15:43.929Z,73.50
2023-03-29T12:18:24.123Z,72.20
2023-03-29T12:21:00.594Z,72.10
2023-03-29T12:23:32.518Z,72.20
2023-03-29T12:26:12.507Z,72.40
2023-03-29T12:29:22.714Z,72.50
2023-03-29T12:32:16.447Z,73.10
2023-03-29T12:35:16.637Z,71.50
2023-03-29T12:38:39.671Z,73.20
2023-03-29T12:41:26.075Z,73.10
2023-03-29T12:44:15.166Z,73.80
2023-03-29T12:46:54.602Z,74.10
2023-03-29T12:49:35.900Z,73.70
2023-03-29T12:52:13.673Z,74.60
2023-03-29T12:54:41.128Z,74.20
2023-03-29T12:57:42.722Z,74.00
2023-03-29T13:00:33.277Z,74.70
2023-03-29T13:03:25.388Z,73.80
2023-03-29T13:06:00.967Z,73.30
2023-03-29T13:08:42.566Z,73.90
2023-03-29T13:11:31.673Z,74.90
2023-03-29T13:14:10.772Z,75.50
2023-03-29T13:16:41.160Z,75.10
2023-03-29T13:19:27.303Z,75.30
2023-03-29T13:22:00.449Z,74.60
2023-03-29T13:24:39.757Z,74.50
2023-03-29T13:27:31.866Z,73.90
2023-03-29T13:30:26.906Z,74.20
2023-03-29T13:33:16.083Z,73.80
2023-03-29T13:36:05.623Z,74.10
2023-03-29T13:38:48.844Z,74.40
2023-03-29T13:41:38.154Z,74.10
2023-03-29T13:44:27.164Z,73.80
2023-03-29T13:47:19.383Z,73.20
2023-03-29T13:49:54.922Z,74.00
2023-03-29T13:52:33.006Z,73.90
2023-03-29T13:55:21.358Z,74.00
2023-03-29T13:58:04.431Z,73.60
2023-03-29T14:00:37.056Z,73.60
2023-03-29T14:03:14.448Z,73.60
2023-03-29T14:05:47.711Z,74.20
2023-03-29T14:08:20.926Z,74.10
2023-03-29T14:10:48.777Z,74.20
2023-03-29T14:13:19.174Z,74.50
2023-03-29T14:15:56.026Z,74.10
2023-03-29T14:18:25.917Z,73.30
2023-03-29T14:20:56.207Z,73.40
2023-03-29T14:23:27.375Z,72.50
2023-03-29T14:25:57.800Z,73.50
2023-03-29T14:28:27.925Z,74.20
2023-03-29T14:30:56.202Z,74.70
2023-03-29T14:33:29.839Z,75.40
2023-03-29T14:36:00.443Z,74.20
2023-03-29T14:38:28.871Z,74.20
2023-03-29T14:41:00.118Z,75.30
2023-03-29T14:43:31.183Z,74.80
2023-03-29T14:46:02.871Z,75.60
2023-03-29T14:48:33.179Z,76.30
2023-03-29T14:51:01.436Z,76.90
2023-03-29T14:53:32.368Z,77.60
2023-03-29T14:56:00.276Z,76.60
2023-03-29T14:58:31.822Z,77.80
2023-03-29T15:01:05.494Z,78.20
2023-03-29T15:03:43.586Z,79.30
2023-03-29T15:06:12.609Z,79.30
2023-03-29T15:08:48.166Z,79.70
2023-03-29T15:11:30.874Z,80.30
2023-03-29T15:14:04.950Z,80.70
2023-03-29T15:16:33.504Z,80.40
2023-03-29T15:19:02.033Z,80.70
2023-03-29T15:21:35.410Z,80.40
2023-03-29T15:24:04.585Z,81.20
2023-03-29T15:26:37.466Z,81.60
2023-03-29T15:29:23.358Z,81.90
2023-03-29T15:31:59.008Z,82.60
2023-03-29T15:34:31.632Z,83.10
2023-03-29T15:37:00.125Z,82.10
2023-03-29T15:39:29.399Z,82.50
2023-03-29T15:41:57.915Z,82.80
2023-03-29T15:44:36.296Z,82.90
2023-03-29T15:47:03.920Z,83.40
2023-03-29T15:49:31.498Z,83.80
2023-03-29T15:51:58.859Z,84.40
2023-03-29T15:54:27.923Z,84.70
2023-03-29T15:57:01.541Z,85.30
2023-03-29T15:59:30.524Z,85.90
2023-03-29T16:01:58.777Z,86.40
2023-03-29T16:04:26.314Z,86.30
2023-03-29T16:06:54.859Z,86.50
2023-03-29T16:09:23.446Z,87.20
2023-03-29T16:11:51.111Z,87.30
2023-03-29T16:14:24.161Z,87.70
2023-03-29T16:16:52.536Z,88.60
2023-03-29T16:19:20.913Z,89.00
2023-03-29T16:21:49.150Z,89.60
2023-03-29T16:24:28.135Z,89.70
2023-03-29T16:26:56.507Z,89.80
2023-03-29T16:29:25.306Z,89.60
2023-03-29T16:31:53.211Z,89.70
2023-03-29T16:34:21.773Z,90.00
2023-03-29T16:36:49.978Z,90.10
2023-03-29T16:39:18.344Z,89.80
2023-03-29T16:41:48.346Z,90.00
2023-03-29T16:44:19.461Z,90.30
2023-03-29T16:46:48.891Z,90.60
2023-03-29T16:49:18.199Z,90.60
2023-03-29T16:51:47.208Z,90.80
2023-03-29T16:54:15.609Z,91.20
2023-03-29T16:56:43.312Z,91.40
2023-03-29T16:59:10.830Z,91.50
2023-03-29T17:01:38.664Z,91.80
2023-03-29T17:04:07.033Z,92.10
2023-03-29T17:06:35.125Z,92.40
2023-03-29T17:09:02.670Z,92.50
2023-03-29T17:11:30.351Z,92.60
2023-03-29T17:13:58.004Z,92.80
2023-03-29T17:16:25.500Z,93.00
2023-03-29T17:18:52.917Z,93.30
2023-03-29T17:21:20.362Z,93.70
2023-03-29T17:23:47.815Z,94.20
2023-03-29T17:26:15.405Z,94.30
2023-03-29T17:28:43.569Z,94.40
2023-03-29T17:31:11.187Z,94.60
2023-03-29T17:33:38.628Z,94.90
2023-03-29T17:36:07.382Z,95.00
2023-03-29T17:38:36.372Z,95.40
2023-03-29T17:41:04.532Z,96.00
2023-03-29T17:43:33.126Z,96.30
2023-03-29T17:46:00.662Z,96.30
2023-03-29T17:48:28.421Z,96.90
2023-03-29T17:50:56.996Z,97.20
2023-03-29T17:53:25.244Z,97.80
2023-03-29T17:55:52.672Z,97.50
2023-03-29T17:58:20.116Z,97.70
2023-03-29T18:00:47.621Z,98.00
2023-03-29T18:03:15.097Z,98.20
2023-03-29T18:05:42.580Z,98.30
2023-03-29T18:08:09.977Z,98.50
2023-03-29T18:10:37.365Z,98.60
2023-03-29T18:13:04.863Z,98.70
2023-03-29T18:15:32.283Z,99.10
2023-03-29T18:17:59.729Z,99.50
2023-03-29T18:20:27.133Z,99.90
2023-03-29T18:22:54.518Z,99.90
2023-03-29T18:25:22.169Z,99.90
2023-03-29T18:27:50.112Z,99.90
2023-03-29T18:30:17.562Z,99.90
2023-03-29T18:32:45.002Z,99.90
2023-03-29T18:35:12.536Z,99.90
2023-03-29T18:37:39.969Z,99.90
2023-03-29T18:40:08.343Z,99.90
2023-03-29T18:42:36.005Z,99.90
2023-03-29T18:45:04.665Z,99.90
2023-03-29T18:47:32.343Z,99.90
2023-03-29T18:49:59.773Z,99.90
2023-03-29T18:52:30.011Z,99.90
2023-03-29T18:54:57.383Z,99.90
2023-03-29T18:57:24.830Z,99.90
2023-03-29T18:59:52.314Z,99.90
2023-03-29T19:02:19.762Z,99.90
2023-03-29T19:04:47.248Z,99.90
2023-03-29T19:07:14.642Z,99.90
2023-03-29T19:09:42.672Z,99.90
2023-03-29T19:12:10.067Z,99.90
2023-03-29T19:14:37.454Z,99.90
2023-03-29T19:17:04.850Z,99.90
2023-03-29T19:19:32.237Z,99.90
2023-03-29T19:22:00.734Z,99.90
2023-03-29T19:24:28.415Z,99.90
2023-03-29T19:26:57.425Z,99.90
2023-03-29T19:29:25.921Z,99.90
2023-03-29T19:31:54.584Z,99.90
2023-03-29T19:34:24.015Z,99.90
2023-03-29T19:36:53.436Z,99.90
2023-03-29T19:39:21.259Z,99.90
2023-03-29T19:41:49.180Z,99.90
2023-03-29T19:44:16.649Z,99.90
2023-03-29T19:46:44.058Z,99.90
2023-03-29T19:49:13.652Z,99.90
2023-03-29T19:51:42.103Z,99.90
2023-03-29T19:54:12.165Z,99.90
2023-03-29T19:56:40.768Z,99.90
2023-03-29T19:59:11.031Z,99.90
2023-03-29T20:01:42.692Z,99.90
2023-03-29T20:04:11.820Z,99.90
2023-03-29T20:06:39.317Z,99.90
2023-03-29T20:09:07.607Z,99.90
2023-03-29T20:11:35.092Z,99.90
2023-03-29T20:14:02.475Z,99.90
2023-03-29T20:16:34.315Z,99.90
2023-03-29T20:19:02.453Z,99.90
2023-03-29T20:21:31.065Z,99.90
2023-03-29T20:23:58.535Z,99.90
2023-03-29T20:26:28.056Z,99.90
2023-03-29T20:28:55.525Z,99.90
2023-03-29T20:31:22.988Z,99.90
2023-03-29T20:33:50.528Z,99.90
2023-03-29T20:36:18.521Z,99.90
2023-03-29T20:38:46.115Z,99.90
2023-03-29T20:41:13.858Z,99.90
2023-03-29T20:43:41.371Z,99.90
2023-03-29T20:46:18.236Z,99.90
2023-03-29T20:48:53.179Z,99.90
2023-03-29T20:51:22.524Z,99.90
2023-03-29T20:53:50.688Z,99.90
2023-03-29T20:56:19.034Z,99.90
2023-03-29T20:58:46.921Z,99.90
2023-03-29T21:01:14.460Z,99.90
2023-03-29T21:03:42.375Z,99.90
2023-03-29T21:06:13.974Z,99.90
2023-03-29T21:08:42.634Z,99.90
2023-03-29T21:11:13.175Z,99.90
2023-03-29T21:13:41.553Z,99.90
2023-03-29T21:16:09.728Z,99.90
2023-03-29T21:18:38.690Z,99.90
2023-03-29T21:21:10.502Z,99.90
2023-03-29T21:23:38.929Z,99.90
2023-03-29T21:26:07.804Z,99.90
2023-03-29T21:28:35.774Z,99.90
2023-03-29T21:31:07.137Z,99.90
2023-03-29T21:33:35.513Z,99.90
2023-03-29T21:36:03.059Z,99.90
2023-03-29T21:38:30.679Z,99.90
2023-03-29T21:40:58.262Z,99.90
2023-03-29T21:43:25.880Z,99.90
2023-03-29T21:45:53.270Z,99.90
2023-03-29T21:48:20.669Z,99.90
2023-03-29T21:50:51.430Z,99.90
2023-03-29T21:53:18.813Z,99.90
2023-03-29T21:55:48.913Z,99.90
2023-03-29T21:58:16.674Z,99.90
2023-03-29T22:00:45.077Z,99.90
2023-03-29T22:03:13.234Z,99.90
2023-03-29T22:05:40.695Z,99.90
2023-03-29T22:08:10.563Z,99.90
2023-03-29T22:10:41.267Z,99.90
2023-03-29T22:13:09.358Z,99.90
2023-03-29T22:15:36.865Z,99.90
2023-03-29T22:18:05.226Z,99.90
2023-03-29T22:20:34.172Z,99.90
2023-03-29T22:23:01.581Z,99.90
2023-03-29T22:25:29.810Z,99.90
2023-03-29T22:27:57.148Z,99.90
2023-03-29T22:30:24.485Z,99.90
2023-03-29T22:32:51.896Z,99.90
2023-03-29T22:35:19.312Z,99.90
2023-03-29T22:37:46.654Z,99.90
2023-03-29T22:40:14.092Z,99.90
2023-03-29T22:42:41.561Z,99.90
2023-03-29T22:45:09.546Z,99.90
2023-03-29T22:47:36.978Z,99.90
2023-03-29T22:50:04.984Z,99.90
2023-03-29T22:52:32.353Z,99.90
2023-03-29T22:54:59.715Z,99.90
2023-03-29T22:57:27.220Z,99.90
2023-03-29T22:59:54.724Z,99.90
2023-03-29T23:02:22.105Z,99.90
2023-03-29T23:04:49.533Z,99.90
2023-03-29T23:07:16.935Z,99.90
2023-03-29T23:09:44.345Z,99.90
2023-03-29T23:12:11.856Z,99.90
2023-03-29T23:14:42.591Z,99.90
2023-03-29T23:17:10.388Z,99.90
2023-03-29T23:19:38.135Z,99.90
2023-03-29T23:22:05.692Z,99.90
2023-03-29T23:24:33.399Z,99.90
2023-03-29T23:27:01.272Z,99.90
2023-03-29T23:29:28.740Z,99.90
2023-03-29T23:31:56.866Z,99.90
2023-03-29T23:34:24.312Z,99.90
2023-03-29T23:36:51.644Z,99.90
2023-03-29T23:39:19.258Z,99.90
2023-03-29T23:41:46.615Z,99.90
2023-03-29T23:44:14.116Z,99.90
2023-03-29T23:46:41.940Z,99.90
2023-03-29T23:49:10.518Z,99.90
2023-03-29T23:51:39.224Z,99.90
2023-03-29T23:54:07.127Z,99.90
2023-03-29T23:56:34.647Z,99.90
2023-03-29T23:59:03.263Z,99.90
